sensor_id;sensor_type;location;lat;lon;timestamp;temperature;humidity
51739;DHT22;37815;52.692;6.226;2023-08-17T00:03:55;22.30;84.40
51739;DHT22;37815;52.692;6.226;2023-08-17T00:08:56;22.40;84.50
51739;DHT22;37815;52.692;6.226;2023-08-17T00:13:57;22.30;84.60
51739;DHT22;37815;52.692;6.226;2023-08-17T00:18:57;22.30;84.50
51739;DHT22;37815;52.692;6.226;2023-08-17T00:23:58;22.20;84.40
51739;DHT22;37815;52.692;6.226;2023-08-17T00:28:59;22.20;84.30
51739;DHT22;37815;52.692;6.226;2023-08-17T00:33:59;22.20;84.40
51739;DHT22;37815;52.692;6.226;2023-08-17T00:39:01;22.10;84.20
51739;DHT22;37815;52.692;6.226;2023-08-17T00:44:02;22.10;84.20
51739;DHT22;37815;52.692;6.226;2023-08-17T00:49:02;22.10;84.30
51739;DHT22;37815;52.692;6.226;2023-08-17T00:54:04;22.00;84.30
51739;DHT22;37815;52.692;6.226;2023-08-17T00:59:04;22.10;84.40
51739;DHT22;37815;52.692;6.226;2023-08-17T01:04:06;22.00;84.30
51739;DHT22;37815;52.692;6.226;2023-08-17T01:09:06;22.00;84.30
51739;DHT22;37815;52.692;6.226;2023-08-17T01:15:07;22.00;84.30
51739;DHT22;37815;52.692;6.226;2023-08-17T01:19:46;21.90;84.30
51739;DHT22;37815;52.692;6.226;2023-08-17T01:24:48;21.90;84.40
51739;DHT22;37815;52.692;6.226;2023-08-17T01:29:48;21.90;84.40
51739;DHT22;37815;52.692;6.226;2023-08-17T01:34:57;21.90;84.40
51739;DHT22;37815;52.692;6.226;2023-08-17T01:39:59;21.80;84.40
51739;DHT22;37815;52.692;6.226;2023-08-17T01:45:00;21.80;84.50
51739;DHT22;37815;52.692;6.226;2023-08-17T01:50:01;21.80;84.40
51739;DHT22;37815;52.692;6.226;2023-08-17T01:55:02;21.80;84.40
51739;DHT22;37815;52.692;6.226;2023-08-17T02:00:04;21.70;84.40
51739;DHT22;37815;52.692;6.226;2023-08-17T02:05:05;21.70;84.40
51739;DHT22;37815;52.692;6.226;2023-08-17T02:10:06;21.70;84.30
51739;DHT22;37815;52.692;6.226;2023-08-17T02:15:07;21.70;84.30
51739;DHT22;37815;52.692;6.226;2023-08-17T02:20:09;21.70;84.40
51739;DHT22;37815;52.692;6.226;2023-08-17T02:25:09;21.70;84.50
51739;DHT22;37815;52.692;6.226;2023-08-17T02:30:11;21.60;84.50
51739;DHT22;37815;52.692;6.226;2023-08-17T02:35:15;21.60;84.50
51739;DHT22;37815;52.692;6.226;2023-08-17T02:40:16;21.60;84.60
51739;DHT22;37815;52.692;6.226;2023-08-17T02:45:17;21.50;84.60
51739;DHT22;37815;52.692;6.226;2023-08-17T02:50:17;21.50;84.60
51739;DHT22;37815;52.692;6.226;2023-08-17T02:55:18;21.60;84.70
51739;DHT22;37815;52.692;6.226;2023-08-17T03:00:19;20.70;84.30
51739;DHT22;37815;52.692;6.226;2023-08-17T03:05:19;21.50;84.80
51739;DHT22;37815;52.692;6.226;2023-08-17T03:10:20;21.50;84.80
51739;DHT22;37815;52.692;6.226;2023-08-17T03:15:21;21.40;84.80
51739;DHT22;37815;52.692;6.226;2023-08-17T03:20:22;21.40;84.80
51739;DHT22;37815;52.692;6.226;2023-08-17T03:25:22;21.40;84.90
51739;DHT22;37815;52.692;6.226;2023-08-17T03:30:23;21.40;84.90
51739;DHT22;37815;52.692;6.226;2023-08-17T03:35:23;21.40;84.90
51739;DHT22;37815;52.692;6.226;2023-08-17T03:40:24;21.40;85.00
51739;DHT22;37815;52.692;6.226;2023-08-17T03:45:25;21.30;85.00
51739;DHT22;37815;52.692;6.226;2023-08-17T03:50:28;21.30;85.10
51739;DHT22;37815;52.692;6.226;2023-08-17T03:55:29;21.30;85.10
51739;DHT22;37815;52.692;6.226;2023-08-17T04:00:29;21.30;85.20
51739;DHT22;37815;52.692;6.226;2023-08-17T04:05:30;21.30;85.20
51739;DHT22;37815;52.692;6.226;2023-08-17T04:10:30;21.20;85.20
51739;DHT22;37815;52.692;6.226;2023-08-17T04:15:31;21.20;85.20
51739;DHT22;37815;52.692;6.226;2023-08-17T04:20:32;21.20;85.20
51739;DHT22;37815;52.692;6.226;2023-08-17T04:25:34;21.20;85.20
51739;DHT22;37815;52.692;6.226;2023-08-17T04:30:35;21.20;85.20
51739;DHT22;37815;52.692;6.226;2023-08-17T04:35:35;21.20;85.30
51739;DHT22;37815;52.692;6.226;2023-08-17T04:40:36;21.10;85.20
51739;DHT22;37815;52.692;6.226;2023-08-17T04:45:44;21.10;85.20
51739;DHT22;37815;52.692;6.226;2023-08-17T04:50:48;21.00;85.20
51739;DHT22;37815;52.692;6.226;2023-08-17T04:55:49;21.10;85.20
51739;DHT22;37815;52.692;6.226;2023-08-17T05:00:49;21.10;85.40
51739;DHT22;37815;52.692;6.226;2023-08-17T05:05:54;21.10;85.50
51739;DHT22;37815;52.692;6.226;2023-08-17T05:10:55;21.10;85.50
51739;DHT22;37815;52.692;6.226;2023-08-17T05:15:55;21.10;85.60
51739;DHT22;37815;52.692;6.226;2023-08-17T05:21:01;21.00;85.70
51739;DHT22;37815;52.692;6.226;2023-08-17T05:26:01;21.00;85.70
51739;DHT22;37815;52.692;6.226;2023-08-17T05:31:06;21.00;85.90
51739;DHT22;37815;52.692;6.226;2023-08-17T05:36:07;21.10;86.10
51739;DHT22;37815;52.692;6.226;2023-08-17T05:41:08;21.00;85.90
51739;DHT22;37815;52.692;6.226;2023-08-17T05:46:09;21.00;86.10
51739;DHT22;37815;52.692;6.226;2023-08-17T05:51:09;21.00;86.00
51739;DHT22;37815;52.692;6.226;2023-08-17T05:56:10;21.00;86.30
51739;DHT22;37815;52.692;6.226;2023-08-17T06:01:12;21.00;86.10
51739;DHT22;37815;52.692;6.226;2023-08-17T06:06:12;21.00;86.10
51739;DHT22;37815;52.692;6.226;2023-08-17T06:11:14;21.00;86.20
51739;DHT22;37815;52.692;6.226;2023-08-17T06:16:14;21.00;86.30
51739;DHT22;37815;52.692;6.226;2023-08-17T06:21:16;21.00;86.50
51739;DHT22;37815;52.692;6.226;2023-08-17T06:26:16;21.00;86.60
51739;DHT22;37815;52.692;6.226;2023-08-17T06:31:17;21.00;86.60
51739;DHT22;37815;52.692;6.226;2023-08-17T06:36:18;21.00;86.90
51739;DHT22;37815;52.692;6.226;2023-08-17T06:41:18;21.00;86.90
51739;DHT22;37815;52.692;6.226;2023-08-17T06:46:19;21.00;86.80
51739;DHT22;37815;52.692;6.226;2023-08-17T06:51:20;21.00;86.70
51739;DHT22;37815;52.692;6.226;2023-08-17T06:56:20;21.00;86.80
51739;DHT22;37815;52.692;6.226;2023-08-17T07:01:23;21.00;87.00
51739;DHT22;37815;52.692;6.226;2023-08-17T07:06:26;21.00;86.80
51739;DHT22;37815;52.692;6.226;2023-08-17T07:11:28;21.00;87.00
51739;DHT22;37815;52.692;6.226;2023-08-17T07:16:28;21.00;87.00
51739;DHT22;37815;52.692;6.226;2023-08-17T07:21:29;21.00;87.10
51739;DHT22;37815;52.692;6.226;2023-08-17T07:26:29;21.00;87.10
51739;DHT22;37815;52.692;6.226;2023-08-17T07:31:30;21.00;87.20
51739;DHT22;37815;52.692;6.226;2023-08-17T07:36:32;21.00;87.20
51739;DHT22;37815;52.692;6.226;2023-08-17T07:41:33;21.00;87.30
51739;DHT22;37815;52.692;6.226;2023-08-17T07:46:33;21.00;87.30
51739;DHT22;37815;52.692;6.226;2023-08-17T07:51:34;21.00;87.20
51739;DHT22;37815;52.692;6.226;2023-08-17T07:56:35;21.10;87.20
51739;DHT22;37815;52.692;6.226;2023-08-17T08:01:35;21.10;87.20
51739;DHT22;37815;52.692;6.226;2023-08-17T08:06:36;21.10;87.20
51739;DHT22;37815;52.692;6.226;2023-08-17T08:11:37;21.10;87.30
51739;DHT22;37815;52.692;6.226;2023-08-17T08:16:38;21.10;87.60
51739;DHT22;37815;52.692;6.226;2023-08-17T08:21:38;21.10;87.50
51739;DHT22;37815;52.692;6.226;2023-08-17T08:26:39;21.10;87.40
51739;DHT22;37815;52.692;6.226;2023-08-17T08:31:39;21.10;87.30
51739;DHT22;37815;52.692;6.226;2023-08-17T08:36:40;21.10;87.30
51739;DHT22;37815;52.692;6.226;2023-08-17T08:41:41;21.20;87.40
51739;DHT22;37815;52.692;6.226;2023-08-17T08:46:44;21.20;87.60
51739;DHT22;37815;52.692;6.226;2023-08-17T08:51:49;21.10;87.70
51739;DHT22;37815;52.692;6.226;2023-08-17T08:56:54;21.20;87.70
51739;DHT22;37815;52.692;6.226;2023-08-17T09:01:58;21.20;87.50
51739;DHT22;37815;52.692;6.226;2023-08-17T09:07:00;21.20;87.40
51739;DHT22;37815;52.692;6.226;2023-08-17T09:12:00;21.30;87.90
51739;DHT22;37815;52.692;6.226;2023-08-17T09:17:01;21.30;88.00
51739;DHT22;37815;52.692;6.226;2023-08-17T09:22:02;21.40;88.20
51739;DHT22;37815;52.692;6.226;2023-08-17T09:27:03;21.30;88.30
51739;DHT22;37815;52.692;6.226;2023-08-17T09:32:05;21.40;88.40
51739;DHT22;37815;52.692;6.226;2023-08-17T09:37:07;21.40;88.20
51739;DHT22;37815;52.692;6.226;2023-08-17T09:42:07;21.30;88.10
51739;DHT22;37815;52.692;6.226;2023-08-17T09:47:10;21.40;88.10
51739;DHT22;37815;52.692;6.226;2023-08-17T09:52:11;21.40;87.80
51739;DHT22;37815;52.692;6.226;2023-08-17T09:57:12;21.40;88.00
51739;DHT22;37815;52.692;6.226;2023-08-17T10:02:21;21.40;88.00
51739;DHT22;37815;52.692;6.226;2023-08-17T10:07:29;21.30;87.90
51739;DHT22;37815;52.692;6.226;2023-08-17T10:12:37;21.40;88.30
51739;DHT22;37815;52.692;6.226;2023-08-17T10:18:14;21.40;88.40
51739;DHT22;37815;52.692;6.226;2023-08-17T10:23:19;21.40;88.50
51739;DHT22;37815;52.692;6.226;2023-08-17T10:28:21;21.50;88.30
51739;DHT22;37815;52.692;6.226;2023-08-17T10:33:22;21.40;88.20
51739;DHT22;37815;52.692;6.226;2023-08-17T10:38:23;21.50;88.20
51739;DHT22;37815;52.692;6.226;2023-08-17T10:43:33;21.50;88.30
51739;DHT22;37815;52.692;6.226;2023-08-17T10:48:34;21.50;88.20
51739;DHT22;37815;52.692;6.226;2023-08-17T10:53:35;21.50;88.20
51739;DHT22;37815;52.692;6.226;2023-08-17T10:58:39;21.50;87.80
51739;DHT22;37815;52.692;6.226;2023-08-17T11:03:41;21.60;88.00
51739;DHT22;37815;52.692;6.226;2023-08-17T11:09:06;21.60;88.00
51739;DHT22;37815;52.692;6.226;2023-08-17T11:14:08;21.60;88.20
51739;DHT22;37815;52.692;6.226;2023-08-17T11:19:09;21.60;89.20
51739;DHT22;37815;52.692;6.226;2023-08-17T11:24:10;21.40;90.40
51739;DHT22;37815;52.692;6.226;2023-08-17T11:29:11;21.30;90.80
51739;DHT22;37815;52.692;6.226;2023-08-17T11:34:14;21.30;91.00
51739;DHT22;37815;52.692;6.226;2023-08-17T11:39:15;21.20;91.30
51739;DHT22;37815;52.692;6.226;2023-08-17T11:44:18;21.20;91.50
51739;DHT22;37815;52.692;6.226;2023-08-17T11:49:21;21.20;91.80
51739;DHT22;37815;52.692;6.226;2023-08-17T11:54:24;21.10;91.80
51739;DHT22;37815;52.692;6.226;2023-08-17T11:59:25;21.10;92.10
51739;DHT22;37815;52.692;6.226;2023-08-17T12:04:28;21.00;92.20
51739;DHT22;37815;52.692;6.226;2023-08-17T12:09:29;21.00;92.50
51739;DHT22;37815;52.692;6.226;2023-08-17T12:14:32;21.10;92.50
51739;DHT22;37815;52.692;6.226;2023-08-17T12:19:32;21.10;92.80
51739;DHT22;37815;52.692;6.226;2023-08-17T12:24:33;21.10;92.90
51739;DHT22;37815;52.692;6.226;2023-08-17T12:29:48;21.10;93.00
51739;DHT22;37815;52.692;6.226;2023-08-17T12:34:49;21.10;93.10
51739;DHT22;37815;52.692;6.226;2023-08-17T12:39:50;21.30;93.10
51739;DHT22;37815;52.692;6.226;2023-08-17T12:44:50;21.30;93.10
51739;DHT22;37815;52.692;6.226;2023-08-17T12:49:51;21.30;93.20
51739;DHT22;37815;52.692;6.226;2023-08-17T12:54:52;21.30;93.20
51739;DHT22;37815;52.692;6.226;2023-08-17T12:59:53;21.40;93.30
51739;DHT22;37815;52.692;6.226;2023-08-17T13:04:54;21.40;93.30
51739;DHT22;37815;52.692;6.226;2023-08-17T13:09:54;21.30;93.40
51739;DHT22;37815;52.692;6.226;2023-08-17T13:14:55;21.20;93.80
51739;DHT22;37815;52.692;6.226;2023-08-17T13:19:55;21.30;93.70
51739;DHT22;37815;52.692;6.226;2023-08-17T13:24:56;21.30;93.90
51739;DHT22;37815;52.692;6.226;2023-08-17T13:29:57;21.30;93.90
51739;DHT22;37815;52.692;6.226;2023-08-17T13:35:02;21.40;94.10
51739;DHT22;37815;52.692;6.226;2023-08-17T13:40:03;21.50;94.00
51739;DHT22;37815;52.692;6.226;2023-08-17T13:45:04;21.50;93.80
51739;DHT22;37815;52.692;6.226;2023-08-17T13:50:05;21.50;93.90
51739;DHT22;37815;52.692;6.226;2023-08-17T13:55:06;21.50;93.90
51739;DHT22;37815;52.692;6.226;2023-08-17T14:00:08;21.50;94.00
51739;DHT22;37815;52.692;6.226;2023-08-17T14:05:09;21.50;94.40
51739;DHT22;37815;52.692;6.226;2023-08-17T14:10:10;21.40;94.50
51739;DHT22;37815;52.692;6.226;2023-08-17T14:15:11;21.40;94.60
51739;DHT22;37815;52.692;6.226;2023-08-17T14:20:11;21.50;94.60
51739;DHT22;37815;52.692;6.226;2023-08-17T14:25:13;21.50;94.60
51739;DHT22;37815;52.692;6.226;2023-08-17T14:30:14;21.50;94.70
51739;DHT22;37815;52.692;6.226;2023-08-17T14:35:14;21.50;94.80
51739;DHT22;37815;52.692;6.226;2023-08-17T14:40:15;21.50;94.80
51739;DHT22;37815;52.692;6.226;2023-08-17T14:45:17;21.50;95.00
51739;DHT22;37815;52.692;6.226;2023-08-17T14:50:18;21.40;94.90
51739;DHT22;37815;52.692;6.226;2023-08-17T14:55:19;21.40;95.00
51739;DHT22;37815;52.692;6.226;2023-08-17T15:00:19;21.30;95.20
51739;DHT22;37815;52.692;6.226;2023-08-17T15:05:20;21.30;95.30
51739;DHT22;37815;52.692;6.226;2023-08-17T15:10:21;21.30;95.50
51739;DHT22;37815;52.692;6.226;2023-08-17T15:15:21;21.30;95.60
51739;DHT22;37815;52.692;6.226;2023-08-17T15:20:22;21.40;95.70
51739;DHT22;37815;52.692;6.226;2023-08-17T15:25:23;21.40;95.70
51739;DHT22;37815;52.692;6.226;2023-08-17T15:30:23;21.30;95.70
51739;DHT22;37815;52.692;6.226;2023-08-17T15:35:24;21.30;95.70
51739;DHT22;37815;52.692;6.226;2023-08-17T15:40:24;21.20;95.70
51739;DHT22;37815;52.692;6.226;2023-08-17T15:45:25;21.10;95.90
51739;DHT22;37815;52.692;6.226;2023-08-17T15:50:26;21.00;96.20
51739;DHT22;37815;52.692;6.226;2023-08-17T15:55:26;21.00;96.60
51739;DHT22;37815;52.692;6.226;2023-08-17T16:00:27;21.00;96.50
51739;DHT22;37815;52.692;6.226;2023-08-17T16:05:28;21.00;96.50
51739;DHT22;37815;52.692;6.226;2023-08-17T16:10:28;20.90;96.50
51739;DHT22;37815;52.692;6.226;2023-08-17T16:15:31;21.00;96.50
51739;DHT22;37815;52.692;6.226;2023-08-17T16:20:31;20.90;96.50
51739;DHT22;37815;52.692;6.226;2023-08-17T16:25:33;20.90;96.80
51739;DHT22;37815;52.692;6.226;2023-08-17T16:30:34;20.90;97.00
51739;DHT22;37815;52.692;6.226;2023-08-17T16:35:37;20.90;97.10
51739;DHT22;37815;52.692;6.226;2023-08-17T16:40:38;20.90;97.20
51739;DHT22;37815;52.692;6.226;2023-08-17T16:45:39;20.90;97.20
51739;DHT22;37815;52.692;6.226;2023-08-17T16:50:39;20.90;97.30
51739;DHT22;37815;52.692;6.226;2023-08-17T16:55:40;20.90;97.30
51739;DHT22;37815;52.692;6.226;2023-08-17T17:00:41;20.90;97.40
51739;DHT22;37815;52.692;6.226;2023-08-17T17:05:44;20.90;97.50
51739;DHT22;37815;52.692;6.226;2023-08-17T17:10:45;20.80;97.60
51739;DHT22;37815;52.692;6.226;2023-08-17T17:15:45;20.80;97.70
51739;DHT22;37815;52.692;6.226;2023-08-17T17:20:46;20.80;97.90
51739;DHT22;37815;52.692;6.226;2023-08-17T17:25:47;20.80;98.00
51739;DHT22;37815;52.692;6.226;2023-08-17T17:30:47;20.80;97.90
51739;DHT22;37815;52.692;6.226;2023-08-17T17:35:48;20.80;97.80
51739;DHT22;37815;52.692;6.226;2023-08-17T17:40:48;20.80;97.50
51739;DHT22;37815;52.692;6.226;2023-08-17T17:45:49;20.80;97.60
51739;DHT22;37815;52.692;6.226;2023-08-17T17:50:50;20.60;97.60
51739;DHT22;37815;52.692;6.226;2023-08-17T17:55:51;20.60;97.50
51739;DHT22;37815;52.692;6.226;2023-08-17T18:00:52;20.70;97.30
51739;DHT22;37815;52.692;6.226;2023-08-17T18:05:53;20.70;97.00
51739;DHT22;37815;52.692;6.226;2023-08-17T18:10:56;20.60;97.10
51739;DHT22;37815;52.692;6.226;2023-08-17T18:15:56;20.60;97.20
51739;DHT22;37815;52.692;6.226;2023-08-17T18:20:57;20.50;97.40
51739;DHT22;37815;52.692;6.226;2023-08-17T18:25:57;20.50;97.50
51739;DHT22;37815;52.692;6.226;2023-08-17T18:30:58;20.50;97.70
51739;DHT22;37815;52.692;6.226;2023-08-17T18:35:59;20.50;97.80
51739;DHT22;37815;52.692;6.226;2023-08-17T18:41:07;20.40;97.80
51739;DHT22;37815;52.692;6.226;2023-08-17T18:46:08;20.40;97.80
51739;DHT22;37815;52.692;6.226;2023-08-17T18:51:09;20.40;97.90
51739;DHT22;37815;52.692;6.226;2023-08-17T18:56:10;20.30;98.00
51739;DHT22;37815;52.692;6.226;2023-08-17T19:01:10;20.20;98.00
51739;DHT22;37815;52.692;6.226;2023-08-17T19:06:11;20.20;98.00
51739;DHT22;37815;52.692;6.226;2023-08-17T19:11:12;20.10;98.00
51739;DHT22;37815;52.692;6.226;2023-08-17T19:16:13;20.00;98.00
51739;DHT22;37815;52.692;6.226;2023-08-17T19:21:13;19.90;97.90
51739;DHT22;37815;52.692;6.226;2023-08-17T19:26:15;20.00;97.80
51739;DHT22;37815;52.692;6.226;2023-08-17T19:31:16;19.90;97.80
51739;DHT22;37815;52.692;6.226;2023-08-17T19:36:17;19.90;97.70
51739;DHT22;37815;52.692;6.226;2023-08-17T19:41:18;19.90;97.60
51739;DHT22;37815;52.692;6.226;2023-08-17T19:46:19;19.80;97.30
51739;DHT22;37815;52.692;6.226;2023-08-17T19:51:20;19.70;96.50
51739;DHT22;37815;52.692;6.226;2023-08-17T19:56:21;19.60;96.20
51739;DHT22;37815;52.692;6.226;2023-08-17T20:01:22;19.60;96.30
51739;DHT22;37815;52.692;6.226;2023-08-17T20:06:23;19.80;96.00
51739;DHT22;37815;52.692;6.226;2023-08-17T20:11:24;20.00;95.60
51739;DHT22;37815;52.692;6.226;2023-08-17T20:16:26;20.20;95.30
51739;DHT22;37815;52.692;6.226;2023-08-17T20:21:27;20.40;95.10
51739;DHT22;37815;52.692;6.226;2023-08-17T20:26:28;20.50;94.90
51739;DHT22;37815;52.692;6.226;2023-08-17T20:31:29;20.60;94.70
51739;DHT22;37815;52.692;6.226;2023-08-17T20:36:30;20.70;94.60
51739;DHT22;37815;52.692;6.226;2023-08-17T20:41:31;20.70;94.50
51739;DHT22;37815;52.692;6.226;2023-08-17T20:46:32;20.80;94.40
51739;DHT22;37815;52.692;6.226;2023-08-17T20:51:34;20.80;94.20
51739;DHT22;37815;52.692;6.226;2023-08-17T20:56:34;20.80;94.20
51739;DHT22;37815;52.692;6.226;2023-08-17T21:01:35;20.80;94.10
51739;DHT22;37815;52.692;6.226;2023-08-17T21:06:35;20.90;94.20
51739;DHT22;37815;52.692;6.226;2023-08-17T21:11:41;20.90;94.10
51739;DHT22;37815;52.692;6.226;2023-08-17T21:16:41;20.90;94.20
51739;DHT22;37815;52.692;6.226;2023-08-17T21:21:42;20.90;94.10
51739;DHT22;37815;52.692;6.226;2023-08-17T21:26:43;20.90;94.20
51739;DHT22;37815;52.692;6.226;2023-08-17T21:31:43;20.90;94.00
51739;DHT22;37815;52.692;6.226;2023-08-17T21:36:46;20.90;94.00
51739;DHT22;37815;52.692;6.226;2023-08-17T21:41:47;20.90;94.10
51739;DHT22;37815;52.692;6.226;2023-08-17T21:46:48;21.00;94.10
51739;DHT22;37815;52.692;6.226;2023-08-17T21:51:48;20.90;94.10
51739;DHT22;37815;52.692;6.226;2023-08-17T21:56:50;20.90;93.90
51739;DHT22;37815;52.692;6.226;2023-08-17T22:01:50;20.90;94.00
51739;DHT22;37815;52.692;6.226;2023-08-17T22:06:51;20.90;93.90
51739;DHT22;37815;52.692;6.226;2023-08-17T22:11:52;20.90;93.90
51739;DHT22;37815;52.692;6.226;2023-08-17T22:16:52;20.90;93.90
51739;DHT22;37815;52.692;6.226;2023-08-17T22:21:53;21.10;93.90
51739;DHT22;37815;52.692;6.226;2023-08-17T22:26:54;20.90;93.90
51739;DHT22;37815;52.692;6.226;2023-08-17T22:31:55;20.90;93.90
51739;DHT22;37815;52.692;6.226;2023-08-17T22:36:55;20.80;93.90
51739;DHT22;37815;52.692;6.226;2023-08-17T22:41:56;20.80;93.80
51739;DHT22;37815;52.692;6.226;2023-08-17T22:46:56;20.90;93.80
51739;DHT22;37815;52.692;6.226;2023-08-17T22:51:58;20.80;93.70
51739;DHT22;37815;52.692;6.226;2023-08-17T22:57:00;20.80;93.80
51739;DHT22;37815;52.692;6.226;2023-08-17T23:02:05;20.80;93.80
51739;DHT22;37815;52.692;6.226;2023-08-17T23:07:07;20.80;93.70
51739;DHT22;37815;52.692;6.226;2023-08-17T23:12:07;20.80;93.80
51739;DHT22;37815;52.692;6.226;2023-08-17T23:17:09;20.80;93.70
51739;DHT22;37815;52.692;6.226;2023-08-17T23:22:09;20.80;93.70
51739;DHT22;37815;52.692;6.226;2023-08-17T23:27:10;20.80;93.70
51739;DHT22;37815;52.692;6.226;2023-08-17T23:32:11;20.80;93.70
51739;DHT22;37815;52.692;6.226;2023-08-17T23:37:12;20.80;93.60
51739;DHT22;37815;52.692;6.226;2023-08-17T23:42:13;20.70;93.60
51739;DHT22;37815;52.692;6.226;2023-08-17T23:47:18;20.80;93.70
51739;DHT22;37815;52.692;6.226;2023-08-17T23:52:18;20.80;93.70
51739;DHT22;37815;52.692;6.226;2023-08-17T23:57:19;20.80;93.70
